Time;durP1;ratioP1;P1;durP2;ratioP2;P2;SDS_P1;SDS_P2;PMS_P1;PMS_P2;Temp;Humidity;BMP_temperature;BMP_pressure;BME280_temperature;BME280_humidity;BME280_pressure;Samples;Min_cycle;Max_cycle;Signal;HPM_P1;HPM_P2
2023/03/14 00:02:07;;;;;;;19.92;4.50;;;9.80;99.90;;;;;;5053691;28;20036;-67
2023/03/14 00:04:33;;;;;;;14.50;4.90;;;9.80;99.90;;;;;;5053643;28;20033;-67
2023/03/14 00:06:58;;;;;;;25.77;6.53;;;9.80;99.90;;;;;;5052446;28;20413;-67
2023/03/14 00:09:26;;;;;;;18.75;4.45;;;9.90;99.90;;;;;;5052067;28;20049;-67
2023/03/14 00:11:53;;;;;;;19.58;4.95;;;9.90;99.90;;;;;;5053496;28;20041;-67
2023/03/14 00:14:19;;;;;;;18.55;4.55;;;9.90;99.90;;;;;;5052433;28;20094;-68
2023/03/14 00:16:48;;;;;;;22.75;5.65;;;9.90;99.90;;;;;;5052237;28;20390;-67
2023/03/14 00:19:13;;;;;;;22.38;4.30;;;9.90;99.90;;;;;;5052237;28;20041;-67
2023/03/14 00:21:39;;;;;;;17.08;4.43;;;9.90;99.90;;;;;;5053835;28;20464;-67
2023/03/14 00:24:05;;;;;;;21.20;3.70;;;10.00;99.90;;;;;;5052195;28;20132;-67
2023/03/14 00:26:31;;;;;;;30.25;5.38;;;10.00;99.90;;;;;;5051962;28;20111;-67
2023/03/14 00:28:57;;;;;;;21.45;4.75;;;10.10;99.90;;;;;;5052900;28;20045;-67
2023/03/14 00:31:23;;;;;;;21.92;4.05;;;10.10;99.90;;;;;;5053145;28;20068;-67
2023/03/14 00:33:51;;;;;;;23.35;4.55;;;10.20;99.90;;;;;;5051104;28;20102;-67
2023/03/14 00:36:18;;;;;;;18.85;3.35;;;10.20;99.90;;;;;;5052698;28;20040;-67
2023/03/14 00:38:46;;;;;;;16.42;3.55;;;10.30;99.90;;;;;;5035273;28;20102;-67
2023/03/14 00:41:14;;;;;;;17.35;4.00;;;10.30;99.90;;;;;;5052687;28;20444;-67
2023/03/14 00:43:40;;;;;;;20.27;4.00;;;10.30;99.90;;;;;;5052404;28;20095;-67
2023/03/14 00:46:07;;;;;;;21.52;4.20;;;10.30;99.90;;;;;;5052957;28;20076;-67
2023/03/14 00:48:33;;;;;;;15.35;3.45;;;10.30;99.90;;;;;;5053357;28;20048;-67
2023/03/14 00:50:59;;;;;;;13.82;4.03;;;10.30;99.90;;;;;;5051429;28;20361;-67
2023/03/14 00:53:25;;;;;;;18.92;3.40;;;10.20;99.90;;;;;;5051582;28;20049;-67
2023/03/14 00:55:51;;;;;;;19.50;4.15;;;10.20;99.90;;;;;;5052793;28;20072;-67
2023/03/14 00:58:18;;;;;;;17.90;3.50;;;10.20;99.90;;;;;;5052544;28;20568;-67
2023/03/14 01:00:44;;;;;;;18.33;3.58;;;10.20;99.90;;;;;;5051712;28;20097;-67
2023/03/14 01:03:12;;;;;;;20.60;5.35;;;10.20;99.90;;;;;;5051487;28;20045;-67
2023/03/14 01:05:38;;;;;;;14.05;4.07;;;10.20;99.90;;;;;;5052134;28;20041;-67
2023/03/14 01:08:07;;;;;;;17.25;3.67;;;10.30;99.90;;;;;;5051263;28;20044;-67
2023/03/14 01:10:34;;;;;;;18.15;3.78;;;10.30;99.90;;;;;;5051355;28;20060;-67
2023/03/14 01:13:00;;;;;;;19.58;5.32;;;10.30;99.90;;;;;;5051889;28;20044;-67
2023/03/14 01:15:25;;;;;;;14.18;3.22;;;10.30;99.90;;;;;;5052702;28;20170;-67
2023/03/14 01:17:51;;;;;;;11.57;2.92;;;10.30;99.90;;;;;;5051979;28;20056;-67
2023/03/14 01:20:17;;;;;;;18.15;3.85;;;10.30;99.90;;;;;;5051442;28;20052;-67
2023/03/14 01:22:44;;;;;;;15.60;3.00;;;10.40;99.90;;;;;;5034391;28;20111;-67
2023/03/14 01:25:15;;;;;;;19.27;4.00;;;10.40;99.90;;;;;;5051588;28;20049;-67
2023/03/14 01:27:41;;;;;;;19.08;4.28;;;10.30;99.90;;;;;;5052169;28;20045;-68
2023/03/14 01:30:08;;;;;;;17.15;3.35;;;10.30;99.90;;;;;;5050815;28;20044;-67
2023/03/14 01:32:34;;;;;;;12.00;3.63;;;10.40;99.90;;;;;;5052260;28;20491;-67
2023/03/14 01:34:59;;;;;;;18.08;4.00;;;10.40;99.90;;;;;;5051076;28;20048;-67
2023/03/14 01:37:25;;;;;;;12.80;3.00;;;10.40;99.90;;;;;;5051065;28;20600;-67
2023/03/14 01:39:51;;;;;;;10.68;3.15;;;10.30;99.90;;;;;;5050177;28;20465;-67
2023/03/14 01:42:17;;;;;;;15.65;3.35;;;10.40;99.90;;;;;;5050770;28;20041;-67
2023/03/14 01:44:56;;;;;;;10.75;2.42;;;10.30;99.90;;;;;;5051665;28;20041;-67
2023/03/14 01:47:23;;;;;;;12.23;2.80;;;10.30;99.90;;;;;;5051354;28;20037;-67
2023/03/14 01:50:05;;;;;;;14.00;3.08;;;10.30;99.90;;;;;;5051855;28;20095;-67
2023/03/14 01:52:44;;;;;;;10.05;2.83;;;10.30;99.90;;;;;;5051883;28;20063;-68
2023/03/14 01:55:15;;;;;;;15.60;3.13;;;10.30;99.90;;;;;;5051652;28;20045;-67
2023/03/14 01:57:56;;;;;;;8.35;2.53;;;10.20;99.90;;;;;;5050129;28;20102;-67
2023/03/14 02:00:23;;;;;;;15.13;4.63;;;10.20;99.90;;;;;;5050498;28;20436;-67
2023/03/14 02:02:54;;;;;;;8.25;2.78;;;10.20;99.90;;;;;;5050459;28;20043;-67
2023/03/14 02:05:25;;;;;;;15.27;4.60;;;10.20;99.90;;;;;;5050762;28;20058;-67
2023/03/14 02:07:56;;;;;;;18.50;3.38;;;10.10;99.90;;;;;;5049603;28;20493;-68
2023/03/14 02:10:25;;;;;;;14.38;2.85;;;10.10;99.90;;;;;;5050058;28;20076;-67
2023/03/14 02:12:54;;;;;;;14.40;2.78;;;10.10;99.90;;;;;;5050324;28;20098;-67
2023/03/14 02:15:20;;;;;;;10.88;2.53;;;10.10;99.90;;;;;;5051157;28;20045;-67
2023/03/14 02:17:47;;;;;;;9.80;2.65;;;10.00;99.90;;;;;;5050017;28;20049;-68
2023/03/14 02:20:16;;;;;;;15.45;2.55;;;10.00;99.90;;;;;;5051265;28;20033;-67
2023/03/14 02:22:45;;;;;;;13.48;3.38;;;10.00;99.90;;;;;;5049472;28;20039;-67
2023/03/14 02:25:31;;;;;;;8.57;2.55;;;10.00;99.90;;;;;;5051157;28;20053;-67
2023/03/14 02:27:58;;;;;;;12.45;2.90;;;10.00;99.90;;;;;;5050769;28;20049;-67
2023/03/14 02:30:27;;;;;;;9.85;2.97;;;10.00;99.90;;;;;;5049604;28;20504;-68
2023/03/14 02:32:58;;;;;;;10.90;2.13;;;9.90;99.90;;;;;;5033458;28;20045;-67
2023/03/14 02:35:29;;;;;;;13.20;3.15;;;9.90;99.90;;;;;;5049414;28;20045;-67
2023/03/14 02:38:06;;;;;;;11.20;3.03;;;9.90;99.90;;;;;;5049482;28;20056;-69
2023/03/14 02:40:32;;;;;;;10.57;2.47;;;9.90;99.90;;;;;;5050952;28;20538;-67
2023/03/14 02:42:58;;;;;;;13.68;2.55;;;9.80;99.90;;;;;;5032923;28;20037;-68
2023/03/14 02:45:42;;;;;;;10.35;2.88;;;9.80;99.90;;;;;;5049499;28;20481;-68
2023/03/14 02:48:31;;;;;;;11.05;3.67;;;9.80;99.90;;;;;;5051285;28;20055;-69
2023/03/14 02:50:59;;;;;;;9.50;2.83;;;9.80;99.90;;;;;;5049359;28;20040;-67
2023/03/14 02:53:27;;;;;;;12.23;3.00;;;9.70;99.90;;;;;;5050916;28;20120;-70
2023/03/14 02:55:53;;;;;;;13.23;3.60;;;9.70;99.90;;;;;;5049496;28;20044;-68
2023/03/14 02:58:20;;;;;;;12.95;3.10;;;9.70;99.90;;;;;;5049603;28;20425;-68
2023/03/14 03:00:46;;;;;;;11.75;4.28;;;9.70;99.90;;;;;;5049844;28;20068;-67
2023/03/14 03:03:12;;;;;;;17.70;3.95;;;9.60;99.90;;;;;;5050596;28;20091;-67
2023/03/14 03:05:38;;;;;;;20.27;3.55;;;9.50;99.90;;;;;;5049700;28;20104;-67
2023/03/14 03:08:04;;;;;;;18.60;3.88;;;9.50;99.90;;;;;;5050530;28;20051;-67
2023/03/14 03:10:31;;;;;;;15.43;3.45;;;9.40;99.90;;;;;;5049180;28;20087;-67
2023/03/14 03:12:57;;;;;;;13.98;3.38;;;9.40;99.90;;;;;;5049691;28;20124;-67
2023/03/14 03:15:23;;;;;;;14.07;4.25;;;9.30;99.90;;;;;;5049427;28;20422;-67
2023/03/14 03:17:48;;;;;;;24.40;4.35;;;9.30;99.90;;;;;;5050160;28;20165;-67
2023/03/14 03:20:14;;;;;;;16.77;3.92;;;9.30;99.90;;;;;;5050460;28;20041;-67
2023/03/14 03:22:40;;;;;;;17.30;3.60;;;9.30;99.90;;;;;;5049523;28;20045;-67
2023/03/14 03:25:07;;;;;;;16.90;4.22;;;9.30;99.90;;;;;;5048953;28;20041;-67
2023/03/14 03:27:35;;;;;;;25.23;5.20;;;9.30;99.90;;;;;;5049475;28;20110;-67
2023/03/14 03:30:02;;;;;;;25.83;6.55;;;9.20;99.90;;;;;;5050092;28;20072;-67
2023/03/14 03:32:28;;;;;;;18.20;3.60;;;9.20;99.90;;;;;;5048187;28;20041;-68
2023/03/14 03:34:54;;;;;;;23.63;5.68;;;9.20;99.90;;;;;;5048649;28;20037;-68
2023/03/14 03:37:19;;;;;;;20.60;4.80;;;9.20;99.90;;;;;;5048382;28;20041;-68
2023/03/14 03:39:45;;;;;;;25.15;4.43;;;9.10;99.90;;;;;;5047656;28;20041;-68
2023/03/14 03:42:11;;;;;;;20.02;4.20;;;9.10;99.90;;;;;;5048524;28;20052;-69
2023/03/14 03:44:37;;;;;;;20.90;4.57;;;9.10;99.90;;;;;;5049801;28;20048;-67
2023/03/14 03:47:03;;;;;;;20.45;4.88;;;9.10;99.90;;;;;;5049280;28;20132;-67
2023/03/14 03:49:31;;;;;;;23.27;4.43;;;9.10;99.90;;;;;;5049768;28;20084;-67
2023/03/14 03:51:58;;;;;;;21.00;3.80;;;9.10;99.90;;;;;;5048090;28;20064;-67
2023/03/14 03:54:24;;;;;;;20.33;5.32;;;9.10;99.90;;;;;;5048659;28;20033;-67
2023/03/14 03:56:49;;;;;;;18.73;5.60;;;9.10;99.90;;;;;;5048616;28;20051;-67
2023/03/14 03:59:15;;;;;;;19.65;5.47;;;9.10;99.90;;;;;;5047917;28;20470;-67
2023/03/14 04:01:41;;;;;;;16.40;6.50;;;9.10;99.90;;;;;;5049937;28;20462;-67
2023/03/14 04:04:07;;;;;;;21.48;7.53;;;9.10;99.90;;;;;;5049638;28;20116;-67
2023/03/14 04:06:33;;;;;;;22.10;6.20;;;9.00;99.90;;;;;;5048032;28;20049;-67
2023/03/14 04:08:59;;;;;;;20.85;7.45;;;9.00;99.90;;;;;;5051899;28;20114;-67
2023/03/14 04:11:24;;;;;;;16.38;6.72;;;9.00;99.90;;;;;;5051863;28;20374;-67
2023/03/14 04:13:50;;;;;;;22.70;9.70;;;9.00;99.90;;;;;;5052610;28;20119;-68
2023/03/14 04:16:22;;;;;;;22.98;7.47;;;9.00;99.90;;;;;;5053107;28;20090;-68
2023/03/14 04:18:48;;;;;;;13.80;6.78;;;9.00;99.90;;;;;;5035144;28;20045;-67
2023/03/14 04:21:14;;;;;;;16.33;5.93;;;9.00;99.90;;;;;;5050978;28;20059;-67
2023/03/14 04:23:40;;;;;;;18.70;7.32;;;9.00;99.90;;;;;;5053105;28;20210;-68
2023/03/14 04:26:06;;;;;;;20.70;7.93;;;9.00;99.90;;;;;;5051422;28;20079;-68
2023/03/14 04:28:32;;;;;;;20.17;7.10;;;9.00;99.90;;;;;;5051230;28;20123;-68
2023/03/14 04:30:57;;;;;;;19.15;6.20;;;9.00;99.90;;;;;;5051493;28;20499;-68
2023/03/14 04:33:23;;;;;;;18.00;6.45;;;9.00;99.90;;;;;;5051458;28;20052;-68
2023/03/14 04:35:54;;;;;;;15.38;6.55;;;9.00;99.90;;;;;;5050701;28;20493;-69
2023/03/14 04:38:19;;;;;;;;;;;9.00;99.90;;;;;;5051784;28;20045;-68
2023/03/14 04:40:45;;;;;;;17.70;6.40;;;9.00;99.90;;;;;;5051792;28;20453;-68
2023/03/14 04:43:11;;;;;;;17.55;6.45;;;8.90;99.90;;;;;;5051360;28;20059;-69
2023/03/14 04:45:41;;;;;;;15.45;5.50;;;9.00;99.90;;;;;;5052601;28;20045;-68
2023/03/14 04:48:07;;;;;;;16.25;4.72;;;8.90;99.90;;;;;;5052158;28;20175;-69
2023/03/14 04:50:32;;;;;;;15.57;5.35;;;8.90;99.90;;;;;;5052438;28;20119;-68
2023/03/14 04:52:58;;;;;;;12.82;5.55;;;8.90;99.90;;;;;;5052373;28;20041;-68
2023/03/14 04:55:24;;;;;;;11.60;4.18;;;8.90;99.90;;;;;;5050431;28;20052;-68
2023/03/14 04:57:50;;;;;;;18.88;5.40;;;8.90;99.90;;;;;;5050914;28;20077;-68
2023/03/14 05:00:18;;;;;;;8.90;3.80;;;9.00;99.90;;;;;;5050810;28;20076;-69
2023/03/14 05:02:44;;;;;;;19.48;5.07;;;8.90;99.90;;;;;;5051795;28;20045;-68
2023/03/14 05:05:10;;;;;;;19.50;6.43;;;8.90;99.90;;;;;;5050775;28;20045;-69
2023/03/14 05:07:36;;;;;;;12.98;6.22;;;8.90;99.90;;;;;;5050582;28;20047;-69
2023/03/14 05:10:02;;;;;;;19.27;6.13;;;8.90;99.90;;;;;;5050067;28;20048;-69
2023/03/14 05:12:28;;;;;;;18.42;6.13;;;8.90;99.90;;;;;;5050754;28;20040;-69
2023/03/14 05:14:54;;;;;;;17.02;6.65;;;8.90;99.90;;;;;;5050546;28;20052;-68
2023/03/14 05:17:19;;;;;;;17.63;6.85;;;8.90;99.90;;;;;;5051431;28;20040;-68
2023/03/14 05:19:45;;;;;;;18.73;6.88;;;8.80;99.90;;;;;;5049809;28;20072;-68
2023/03/14 05:22:12;;;;;;;15.40;6.35;;;8.80;99.90;;;;;;5050751;28;20527;-68
2023/03/14 05:24:37;;;;;;;20.17;8.25;;;8.80;99.90;;;;;;5049682;28;20056;-68
2023/03/14 05:27:04;;;;;;;18.48;7.13;;;8.80;99.90;;;;;;5050611;28;20094;-68
2023/03/14 05:29:30;;;;;;;20.27;6.93;;;8.80;99.90;;;;;;5051595;28;20037;-67
2023/03/14 05:31:56;;;;;;;15.98;6.63;;;8.80;99.90;;;;;;5050982;28;20511;-67
2023/03/14 05:34:21;;;;;;;17.58;7.03;;;8.80;99.90;;;;;;5050151;28;20098;-67
2023/03/14 05:36:47;;;;;;;20.83;8.63;;;8.90;99.90;;;;;;5050701;28;20045;-67
2023/03/14 05:39:13;;;;;;;16.10;6.43;;;8.80;99.90;;;;;;5050053;28;20124;-67
2023/03/14 05:41:39;;;;;;;17.15;7.45;;;8.80;99.90;;;;;;5033874;28;20037;-67
2023/03/14 05:44:04;;;;;;;20.98;7.22;;;8.90;99.90;;;;;;5050915;28;20112;-67
2023/03/14 05:46:30;;;;;;;20.98;6.95;;;8.90;99.90;;;;;;5050273;28;20045;-67
2023/03/14 05:48:57;;;;;;;15.40;7.10;;;8.80;99.90;;;;;;5051559;28;20049;-67
2023/03/14 05:51:24;;;;;;;20.20;7.22;;;8.90;99.90;;;;;;5050811;28;20043;-67
2023/03/14 05:53:49;;;;;;;12.07;6.57;;;8.90;99.90;;;;;;5051265;28;20080;-67
2023/03/14 05:56:15;;;;;;;16.23;7.18;;;8.90;99.90;;;;;;5049776;28;20084;-67
2023/03/14 05:58:41;;;;;;;18.15;8.00;;;8.90;99.90;;;;;;5049111;28;20045;-67
2023/03/14 06:01:07;;;;;;;12.45;6.03;;;8.90;99.90;;;;;;5051050;28;20107;-67
2023/03/14 06:03:34;;;;;;;14.18;7.03;;;8.90;99.90;;;;;;5049787;28;20440;-68
2023/03/14 06:05:59;;;;;;;14.82;6.93;;;8.90;99.90;;;;;;5049947;28;20043;-67
2023/03/14 06:08:25;;;;;;;22.38;7.25;;;8.90;99.90;;;;;;5049454;28;20037;-66
2023/03/14 06:10:52;;;;;;;17.33;7.35;;;8.90;99.90;;;;;;5049629;28;20076;-67
2023/03/14 06:13:18;;;;;;;13.63;6.57;;;8.90;99.90;;;;;;5048872;28;20049;-67
2023/03/14 06:15:44;;;;;;;16.67;7.18;;;8.90;99.90;;;;;;5049351;28;20528;-67
2023/03/14 06:18:10;;;;;;;13.05;5.95;;;8.90;99.90;;;;;;5050773;28;20076;-62
2023/03/14 06:20:38;;;;;;;13.15;5.53;;;8.90;99.90;;;;;;5050113;28;20037;-62
2023/03/14 06:23:08;;;;;;;15.73;7.82;;;8.80;99.90;;;;;;5049267;28;20037;-62
2023/03/14 06:25:35;;;;;;;12.85;5.57;;;8.90;99.90;;;;;;5049141;28;20136;-62
2023/03/14 06:28:01;;;;;;;13.65;5.70;;;8.90;99.90;;;;;;5049776;28;20102;-62
2023/03/14 06:30:27;;;;;;;10.30;3.90;;;8.90;99.90;;;;;;5049431;28;20481;-62
2023/03/14 06:32:53;;;;;;;8.57;3.65;;;8.80;99.90;;;;;;5049806;28;20052;-62
2023/03/14 06:35:19;;;;;;;8.13;2.53;;;8.80;99.90;;;;;;5049203;28;20048;-62
2023/03/14 06:37:44;;;;;;;10.68;3.78;;;8.60;99.90;;;;;;5050061;28;20043;-62
2023/03/14 06:40:17;;;;;;;6.00;1.70;;;8.60;99.90;;;;;;5049661;28;20049;-62
2023/03/14 06:42:47;;;;;;;7.47;2.05;;;8.50;99.90;;;;;;5050392;28;20060;-63
2023/03/14 06:45:13;;;;;;;8.90;1.30;;;8.30;99.90;;;;;;5050498;28;20072;-62
2023/03/14 06:47:39;;;;;;;8.80;1.30;;;8.20;99.90;;;;;;5049814;28;20124;-62
2023/03/14 06:50:09;;;;;;;6.70;1.42;;;8.00;99.90;;;;;;5032329;28;20037;-62
2023/03/14 06:52:36;;;;;;;7.93;1.33;;;7.70;99.90;;;;;;5048925;28;20071;-62
2023/03/14 06:55:02;;;;;;;11.88;1.67;;;7.50;99.90;;;;;;5048197;28;20496;-62
2023/03/14 06:57:28;;;;;;;11.43;1.48;;;7.40;99.90;;;;;;5049111;28;20045;-62
2023/03/14 06:59:53;;;;;;;9.02;1.73;;;7.10;99.90;;;;;;5050251;28;20424;-62
2023/03/14 07:02:19;;;;;;;9.27;1.30;;;7.00;99.90;;;;;;5049580;28;20043;-62
2023/03/14 07:04:45;;;;;;;7.55;2.47;;;6.90;99.90;;;;;;5048811;28;20045;-62
2023/03/14 07:07:11;;;;;;;10.23;1.65;;;6.70;99.90;;;;;;5048719;28;20045;-62
2023/03/14 07:09:36;;;;;;;8.80;0.98;;;6.60;99.90;;;;;;5048276;28;20052;-62
2023/03/14 07:12:03;;;;;;;8.13;1.25;;;6.40;99.90;;;;;;5049864;28;20048;-63
2023/03/14 07:14:30;;;;;;;11.13;1.15;;;6.20;99.90;;;;;;5048442;28;20551;-63
2023/03/14 07:16:56;;;;;;;6.43;1.05;;;6.10;99.90;;;;;;5048260;28;20046;-63
2023/03/14 07:19:21;;;;;;;7.85;1.10;;;6.00;99.90;;;;;;5050206;28;20114;-63
2023/03/14 07:21:47;;;;;;;4.57;1.13;;;5.90;99.90;;;;;;5049479;28;20485;-62
2023/03/14 07:24:13;;;;;;;8.60;1.10;;;5.80;99.90;;;;;;5049952;28;20040;-63
2023/03/14 07:26:39;;;;;;;6.82;1.25;;;5.70;99.90;;;;;;5048387;28;20056;-63
2023/03/14 07:29:05;;;;;;;8.13;1.02;;;5.60;99.90;;;;;;5047838;28;20124;-63
2023/03/14 07:31:31;;;;;;;5.32;0.60;;;5.50;99.90;;;;;;5031813;28;20149;-63
2023/03/14 07:33:57;;;;;;;2.97;0.65;;;5.50;99.90;;;;;;5048646;28;20118;-63
2023/03/14 07:36:23;;;;;;;5.78;1.05;;;5.50;99.90;;;;;;5049117;28;20049;-63
2023/03/14 07:38:48;;;;;;;9.23;1.42;;;5.40;99.90;;;;;;5048351;28;20045;-64
2023/03/14 07:41:14;;;;;;;3.70;0.60;;;5.40;99.90;;;;;;5050059;28;20033;-63
2023/03/14 07:43:40;;;;;;;7.65;0.90;;;5.30;99.90;;;;;;5052966;28;20517;-64
2023/03/14 07:46:06;;;;;;;7.47;1.00;;;5.30;99.90;;;;;;5052324;28;20040;-63
2023/03/14 07:48:32;;;;;;;6.18;0.82;;;5.40;99.90;;;;;;5053130;28;20056;-63
2023/03/14 07:50:58;;;;;;;6.30;0.85;;;5.40;99.90;;;;;;5052633;28;20095;-64
2023/03/14 07:53:24;;;;;;;5.03;0.80;;;5.40;99.90;;;;;;5053415;28;20111;-63
2023/03/14 07:55:52;;;;;;;3.75;0.80;;;5.30;99.90;;;;;;5052387;28;20037;-63
2023/03/14 07:58:18;;;;;;;4.88;0.60;;;5.30;99.90;;;;;;5052908;28;20065;-62
2023/03/14 08:00:44;;;;;;;4.15;0.75;;;5.30;99.90;;;;;;5052316;28;20506;-63
2023/03/14 08:03:10;;;;;;;3.80;0.88;;;5.40;99.90;;;;;;5053280;28;20037;-63
2023/03/14 08:05:36;;;;;;;4.85;0.90;;;5.40;99.90;;;;;;5051475;28;20041;-63
2023/03/14 08:08:03;;;;;;;5.05;1.05;;;5.50;99.90;;;;;;5053020;28;20056;-63
2023/03/14 08:10:29;;;;;;;5.85;1.05;;;5.50;99.90;;;;;;5035306;28;20049;-63
2023/03/14 08:12:57;;;;;;;6.03;1.85;;;5.60;99.90;;;;;;5051409;28;20153;-62
2023/03/14 08:15:25;;;;;;;5.80;0.82;;;5.70;99.90;;;;;;5049595;28;20051;-62
2023/03/14 08:17:53;;;;;;;8.05;1.10;;;5.80;99.90;;;;;;5033488;28;20037;-62
2023/03/14 08:20:23;;;;;;;3.75;0.60;;;5.90;99.90;;;;;;5051494;28;20040;-62
2023/03/14 08:22:49;;;;;;;;;;;6.00;99.90;;;;;;5053107;28;20111;-62
2023/03/14 08:25:15;;;;;;;7.15;1.88;;;6.00;99.90;;;;;;5050600;28;20337;-62
2023/03/14 08:27:41;;;;;;;5.47;1.27;;;6.00;99.90;;;;;;5052732;28;20115;-62
2023/03/14 08:30:13;;;;;;;4.60;1.13;;;6.00;99.90;;;;;;5052805;28;20112;-62
2023/03/14 08:32:39;;;;;;;6.85;0.73;;;6.10;99.90;;;;;;5050879;28;20043;-62
2023/03/14 08:35:06;;;;;;;2.70;0.73;;;6.10;99.90;;;;;;5050384;28;20167;-62
2023/03/14 08:37:33;;;;;;;12.25;1.52;;;6.10;99.90;;;;;;5052876;28;20040;-63
2023/03/14 08:40:06;;;;;;;10.40;1.27;;;6.20;99.90;;;;;;5052012;28;20048;-63
2023/03/14 08:42:36;;;;;;;7.18;1.15;;;6.20;99.90;;;;;;5052563;28;20036;-63
2023/03/14 08:45:02;;;;;;;7.40;1.10;;;6.20;99.90;;;;;;5051192;28;20041;-63
2023/03/14 08:47:29;;;;;;;5.90;1.15;;;6.30;99.90;;;;;;5050800;28;20090;-63
2023/03/14 08:49:55;;;;;;;10.85;1.30;;;6.50;99.90;;;;;;5051238;28;20044;-63
2023/03/14 08:52:21;;;;;;;8.85;2.17;;;6.60;99.90;;;;;;5051183;28;20045;-63
2023/03/14 08:54:46;;;;;;;14.23;2.00;;;6.70;99.90;;;;;;5050443;28;20453;-63
2023/03/14 08:57:12;;;;;;;12.85;2.75;;;6.80;99.90;;;;;;5052040;28;20105;-62
2023/03/14 08:59:38;;;;;;;8.25;2.22;;;6.90;99.90;;;;;;5050865;28;20041;-63
2023/03/14 09:02:04;;;;;;;11.90;1.98;;;7.00;99.90;;;;;;5051879;28;20029;-62
2023/03/14 09:04:31;;;;;;;5.20;1.58;;;7.10;99.90;;;;;;5052478;28;20422;-63
2023/03/14 09:06:57;;;;;;;14.65;2.55;;;7.30;99.90;;;;;;5050480;28;20041;-63
2023/03/14 09:09:24;;;;;;;8.57;1.80;;;7.80;99.90;;;;;;5050711;28;20052;-63
2023/03/14 09:11:50;;;;;;;13.50;2.38;;;8.30;99.90;;;;;;5052066;28;20048;-63
2023/03/14 09:14:16;;;;;;;13.25;2.17;;;8.40;99.90;;;;;;5050043;28;20056;-63
2023/03/14 09:16:42;;;;;;;10.52;1.98;;;8.40;99.90;;;;;;5050490;28;20041;-63
2023/03/14 09:19:07;;;;;;;12.43;2.90;;;8.40;99.90;;;;;;5050425;28;20041;-63
2023/03/14 09:21:33;;;;;;;16.05;2.70;;;8.20;99.90;;;;;;5051181;28;20106;-63
2023/03/14 09:23:59;;;;;;;16.23;2.28;;;8.00;99.90;;;;;;5051955;28;20095;-62
2023/03/14 09:26:25;;;;;;;14.05;2.17;;;7.80;99.90;;;;;;5051410;28;20053;-62
2023/03/14 09:28:51;;;;;;;11.80;1.95;;;7.70;99.90;;;;;;5051217;28;20083;-62
2023/03/14 09:31:16;;;;;;;13.05;3.42;;;7.70;99.90;;;;;;5049994;28;20504;-62
2023/03/14 09:33:42;;;;;;;11.63;2.63;;;7.60;99.90;;;;;;5050444;28;20080;-63
2023/03/14 09:36:08;;;;;;;18.40;3.75;;;7.60;99.90;;;;;;5051193;28;20891;-62
2023/03/14 09:38:34;;;;;;;19.48;3.63;;;7.30;99.90;;;;;;5050133;28;20045;-63
2023/03/14 09:41:02;;;;;;;17.45;4.22;;;7.10;99.90;;;;;;5048105;28;20047;-62
2023/03/14 09:43:35;;;;;;;18.55;4.55;;;7.00;99.90;;;;;;5049440;28;20497;-65
2023/03/14 09:46:02;;;;;;;26.48;5.93;;;6.90;99.90;;;;;;5049752;28;20049;-63
2023/03/14 09:48:32;;;;;;;13.98;2.92;;;6.90;99.90;;;;;;5050089;28;20049;-62
2023/03/14 09:51:03;;;;;;;17.57;2.87;;;7.10;99.90;;;;;;5049322;28;20072;-62
2023/03/14 09:53:42;;;;;;;14.88;2.92;;;7.30;99.90;;;;;;5049932;28;20045;-63
2023/03/14 09:56:17;;;;;;;15.13;3.83;;;7.50;99.90;;;;;;5049265;28;20040;-62
2023/03/14 09:59:10;;;;;;;21.05;4.60;;;7.70;99.90;;;;;;5049469;28;20041;-62
2023/03/14 10:01:36;;;;;;;16.60;3.05;;;7.70;99.90;;;;;;5050447;28;20094;-63
2023/03/14 10:04:17;;;;;;;14.93;3.45;;;7.70;99.90;;;;;;5048700;28;20120;-62
2023/03/14 10:06:43;;;;;;;14.15;2.88;;;7.70;99.90;;;;;;5050298;28;20036;-62
2023/03/14 10:09:32;;;;;;;18.77;3.00;;;7.60;99.90;;;;;;5048679;28;20506;-63
2023/03/14 10:12:06;;;;;;;18.42;4.05;;;7.50;99.90;;;;;;5048313;28;20036;-63
2023/03/14 10:14:37;;;;;;;22.88;4.60;;;7.40;99.90;;;;;;5048514;28;20110;-62
2023/03/14 10:17:12;;;;;;;14.27;3.10;;;7.40;99.90;;;;;;5047822;28;20542;-62
2023/03/14 10:19:52;;;;;;;20.13;3.28;;;7.40;99.90;;;;;;5048448;28;20090;-63
2023/03/14 10:22:19;;;;;;;17.30;3.50;;;7.50;99.90;;;;;;5048589;28;20046;-63
2023/03/14 10:24:49;;;;;;;14.40;2.80;;;7.60;99.90;;;;;;5048952;28;20505;-63
2023/03/14 10:27:20;;;;;;;11.32;3.03;;;7.70;99.90;;;;;;5049766;28;20086;-62
2023/03/14 10:30:34;;;;;;;13.90;3.00;;;7.80;99.90;;;;;;5049602;28;20056;-63
2023/03/14 10:33:09;;;;;;;11.68;2.40;;;7.70;99.90;;;;;;5043900;28;20517;-62
2023/03/14 10:35:36;;;;;;;13.75;2.58;;;7.80;99.90;;;;;;5048218;28;20049;-63
2023/03/14 10:38:03;;;;;;;13.52;2.45;;;7.90;99.90;;;;;;5047421;28;20116;-63
2023/03/14 10:40:37;;;;;;;12.70;3.08;;;7.80;99.90;;;;;;5048154;28;20044;-63
2023/03/14 10:43:05;;;;;;;14.50;2.60;;;7.80;99.90;;;;;;5049817;28;20048;-64
2023/03/14 10:45:38;;;;;;;10.60;2.22;;;7.80;99.90;;;;;;5048931;28;20529;-63
2023/03/14 10:48:28;;;;;;;15.63;2.60;;;8.10;99.90;;;;;;5047940;28;20102;-63
2023/03/14 10:51:19;;;;;;;11.65;2.60;;;8.60;99.90;;;;;;5049582;28;20048;-63
2023/03/14 10:54:01;;;;;;;13.52;3.03;;;8.80;99.90;;;;;;5048840;28;20041;-63
2023/03/14 10:56:33;;;;;;;12.60;2.15;;;9.60;99.90;;;;;;5047755;28;20065;-63
2023/03/14 10:58:59;;;;;;;8.88;2.63;;;10.20;99.90;;;;;;5047270;28;20049;-63
2023/03/14 11:01:43;;;;;;;9.45;2.10;;;10.00;99.90;;;;;;5049276;28;20092;-64
2023/03/14 11:04:24;;;;;;;7.78;1.80;;;10.10;99.90;;;;;;5049262;28;20037;-64
2023/03/14 11:07:03;;;;;;;5.28;1.40;;;10.50;99.90;;;;;;5048088;28;20155;-64
2023/03/14 11:10:20;;;;;;;7.10;2.20;;;11.10;99.90;;;;;;5049933;28;20128;-63
2023/03/14 11:13:06;;;;;;;8.73;1.80;;;11.80;99.90;;;;;;5010695;28;20054;-63
2023/03/14 11:16:08;;;;;;;16.27;2.55;;;12.10;99.90;;;;;;5027242;28;20050;-63
2023/03/14 11:19:03;;;;;;;8.68;1.67;;;12.30;99.90;;;;;;5013784;28;20064;-63
2023/03/14 11:21:47;;;;;;;15.45;2.40;;;11.70;99.90;;;;;;5030829;28;20062;-63
2023/03/14 11:24:22;;;;;;;13.73;2.00;;;10.80;99.90;;;;;;5015021;28;20077;-64
2023/03/14 11:27:06;;;;;;;13.45;2.47;;;10.20;99.90;;;;;;5014148;28;20046;-63
2023/03/14 11:29:55;;;;;;;12.30;2.10;;;9.70;99.90;;;;;;5014714;28;20548;-63
2023/03/14 11:32:46;;;;;;;8.60;1.93;;;10.10;99.90;;;;;;5014910;28;20494;-64
2023/03/14 11:35:24;;;;;;;9.63;1.73;;;11.00;99.90;;;;;;5030771;28;20068;-64
2023/03/14 11:38:14;;;;;;;7.63;1.50;;;11.10;99.90;;;;;;5014855;28;20052;-65
2023/03/14 11:40:41;;;;;;;7.85;1.80;;;10.90;99.90;;;;;;5013733;28;20095;-65
2023/03/14 11:43:26;;;;;;;6.32;1.10;;;11.50;99.90;;;;;;5013817;28;20049;-65
2023/03/14 11:45:57;;;;;;;7.40;1.10;;;12.00;99.90;;;;;;5030600;28;20045;-65
2023/03/14 11:48:38;;;;;;;4.85;1.35;;;12.40;99.70;;;;;;5036775;28;20048;-65
2023/03/14 11:51:17;;;;;;;6.07;1.00;;;12.80;98.60;;;;;;5053594;28;20048;-63
2023/03/14 11:53:48;;;;;;;5.28;0.90;;;12.90;97.90;;;;;;5052150;28;20132;-64
2023/03/14 11:56:24;;;;;;;8.65;1.40;;;12.90;96.60;;;;;;5051648;28;20045;-64
2023/03/14 11:59:01;;;;;;;8.52;1.42;;;12.70;95.10;;;;;;5053407;28;20129;-64
2023/03/14 12:01:43;;;;;;;6.60;1.40;;;12.30;96.20;;;;;;5052970;28;20048;-64
2023/03/14 12:04:51;;;;;;;5.95;1.20;;;11.90;95.00;;;;;;5053274;28;20041;-63
2023/03/14 12:07:48;;;;;;;5.97;1.48;;;11.30;95.00;;;;;;5048309;28;20037;-64
2023/03/14 12:10:14;;;;;;;7.95;1.65;;;11.10;96.00;;;;;;5051343;28;20055;-63
2023/03/14 12:12:40;;;;;;;6.93;1.38;;;11.10;97.20;;;;;;5051756;28;20045;-64
2023/03/14 12:15:17;;;;;;;5.28;1.45;;;10.80;97.00;;;;;;5052829;28;20025;-63
2023/03/14 12:17:43;;;;;;;6.70;1.38;;;10.50;97.10;;;;;;5051067;28;20041;-64
2023/03/14 12:20:20;;;;;;;9.77;1.60;;;10.60;98.30;;;;;;5051591;28;20051;-63
2023/03/14 12:22:48;;;;;;;7.55;2.35;;;11.50;97.10;;;;;;5052692;28;20393;-65
2023/03/14 12:25:26;;;;;;;7.05;1.20;;;12.10;97.50;;;;;;5051366;28;20837;-64
2023/03/14 12:27:54;;;;;;;6.82;1.92;;;12.40;95.60;;;;;;5052784;28;20037;-64
2023/03/14 12:30:37;;;;;;;9.88;1.95;;;12.40;95.90;;;;;;5052037;28;20513;-64
2023/03/14 12:33:09;;;;;;;11.20;1.58;;;11.70;95.40;;;;;;5052909;28;20132;-64
2023/03/14 12:35:40;;;;;;;6.07;1.45;;;11.00;96.00;;;;;;5051335;28;20089;-64
2023/03/14 12:38:36;;;;;;;8.77;1.42;;;10.90;96.60;;;;;;5051957;28;20103;-64
2023/03/14 12:41:35;;;;;;;9.70;1.55;;;11.50;97.20;;;;;;5052716;28;20152;-64
2023/03/14 12:44:40;;;;;;;4.93;1.20;;;11.20;94.40;;;;;;5052045;28;20462;-64
2023/03/14 12:47:18;;;;;;;5.75;1.60;;;10.30;94.00;;;;;;5052069;28;20033;-64
2023/03/14 12:49:47;;;;;;;4.28;1.10;;;10.10;95.60;;;;;;5052270;28;20041;-63
2023/03/14 12:52:33;;;;;;;8.18;1.55;;;10.30;95.20;;;;;;5050446;28;20080;-63
2023/03/14 12:55:34;;;;;;;6.13;1.67;;;10.60;95.30;;;;;;5052072;28;20049;-63
2023/03/14 12:58:08;;;;;;;6.50;1.38;;;10.90;94.30;;;;;;5042526;28;20048;-63
2023/03/14 13:00:39;;;;;;;8.23;1.33;;;11.10;93.50;;;;;;5052224;28;20432;-64
2023/03/14 13:03:27;;;;;;;3.90;1.13;;;11.20;93.20;;;;;;5050859;28;20045;-64